sensor_id;sensor_type;location;lat;lon;timestamp;temperature;humidity
77056;SHT30;67471;44.918;8.614;2024-03-02T00:00:59;10.95;88.05
77056;SHT30;67471;44.918;8.614;2024-03-02T00:04:07;11.02;87.82
77056;SHT30;67471;44.918;8.614;2024-03-02T00:07:14;11.09;87.71
77056;SHT30;67471;44.918;8.614;2024-03-02T00:10:20;11.09;87.68
77056;SHT30;67471;44.918;8.614;2024-03-02T00:13:29;11.12;87.42
77056;SHT30;67471;44.918;8.614;2024-03-02T00:16:33;11.09;87.38
77056;SHT30;67471;44.918;8.614;2024-03-02T00:19:40;11.08;87.48
77056;SHT30;67471;44.918;8.614;2024-03-02T00:22:44;11.01;87.73
77056;SHT30;67471;44.918;8.614;2024-03-02T00:25:51;11.01;87.98
77056;SHT30;67471;44.918;8.614;2024-03-02T00:28:59;11.08;87.98
77056;SHT30;67471;44.918;8.614;2024-03-02T00:32:10;11.09;87.83
77056;SHT30;67471;44.918;8.614;2024-03-02T00:35:16;11.06;87.93
77056;SHT30;67471;44.918;8.614;2024-03-02T00:38:20;11.13;87.63
77056;SHT30;67471;44.918;8.614;2024-03-02T00:41:30;11.15;87.24
77056;SHT30;67471;44.918;8.614;2024-03-02T00:44:34;11.20;87.18
77056;SHT30;67471;44.918;8.614;2024-03-02T00:47:41;11.09;87.58
77056;SHT30;67471;44.918;8.614;2024-03-02T00:50:52;11.05;87.74
77056;SHT30;67471;44.918;8.614;2024-03-02T00:53:59;11.03;87.73
77056;SHT30;67471;44.918;8.614;2024-03-02T00:57:03;11.09;87.70
77056;SHT30;67471;44.918;8.614;2024-03-02T01:00:08;11.13;87.99
77056;SHT30;67471;44.918;8.614;2024-03-02T01:03:13;11.05;88.06
77056;SHT30;67471;44.918;8.614;2024-03-02T01:06:17;11.12;88.22
77056;SHT30;67471;44.918;8.614;2024-03-02T01:09:21;11.15;88.16
77056;SHT30;67471;44.918;8.614;2024-03-02T01:12:25;11.15;88.17
77056;SHT30;67471;44.918;8.614;2024-03-02T01:15:28;11.08;88.07
77056;SHT30;67471;44.918;8.614;2024-03-02T01:18:32;11.08;87.96
77056;SHT30;67471;44.918;8.614;2024-03-02T01:21:36;11.20;87.55
77056;SHT30;67471;44.918;8.614;2024-03-02T01:24:40;11.09;88.16
77056;SHT30;67471;44.918;8.614;2024-03-02T01:27:44;11.09;87.78
77056;SHT30;67471;44.918;8.614;2024-03-02T01:30:48;11.08;88.03
77056;SHT30;67471;44.918;8.614;2024-03-02T01:33:51;11.08;88.01
77056;SHT30;67471;44.918;8.614;2024-03-02T01:36:55;11.09;87.99
77056;SHT30;67471;44.918;8.614;2024-03-02T01:39:59;11.08;87.84
77056;SHT30;67471;44.918;8.614;2024-03-02T01:43:06;11.09;87.49
77056;SHT30;67471;44.918;8.614;2024-03-02T01:46:10;11.05;87.69
77056;SHT30;67471;44.918;8.614;2024-03-02T01:49:14;11.12;87.68
77056;SHT30;67471;44.918;8.614;2024-03-02T01:52:18;11.11;87.12
77056;SHT30;67471;44.918;8.614;2024-03-02T01:55:22;11.11;87.47
77056;SHT30;67471;44.918;8.614;2024-03-02T01:58:25;11.15;87.63
77056;SHT30;67471;44.918;8.614;2024-03-02T02:01:29;11.15;87.52
77056;SHT30;67471;44.918;8.614;2024-03-02T02:04:34;11.05;87.81
77056;SHT30;67471;44.918;8.614;2024-03-02T02:07:38;11.12;87.60
77056;SHT30;67471;44.918;8.614;2024-03-02T02:10:42;11.12;87.52
77056;SHT30;67471;44.918;8.614;2024-03-02T02:13:46;11.13;87.36
77056;SHT30;67471;44.918;8.614;2024-03-02T02:16:49;11.12;87.66
77056;SHT30;67471;44.918;8.614;2024-03-02T02:19:53;11.09;87.70
77056;SHT30;67471;44.918;8.614;2024-03-02T02:23:02;11.16;87.50
77056;SHT30;67471;44.918;8.614;2024-03-02T02:26:06;11.11;87.69
77056;SHT30;67471;44.918;8.614;2024-03-02T02:29:10;11.11;87.51
77056;SHT30;67471;44.918;8.614;2024-03-02T02:32:14;11.20;87.30
77056;SHT30;67471;44.918;8.614;2024-03-02T02:35:18;11.13;87.72
77056;SHT30;67471;44.918;8.614;2024-03-02T02:38:21;11.08;88.13
77056;SHT30;67471;44.918;8.614;2024-03-02T02:41:25;11.15;87.91
77056;SHT30;67471;44.918;8.614;2024-03-02T02:44:29;11.19;87.84
77056;SHT30;67471;44.918;8.614;2024-03-02T02:47:33;11.08;87.95
77056;SHT30;67471;44.918;8.614;2024-03-02T02:50:38;11.19;87.77
77056;SHT30;67471;44.918;8.614;2024-03-02T02:53:42;11.16;87.94
77056;SHT30;67471;44.918;8.614;2024-03-02T02:56:46;11.16;88.12
77056;SHT30;67471;44.918;8.614;2024-03-02T02:59:49;11.12;88.02
77056;SHT30;67471;44.918;8.614;2024-03-02T03:02:53;11.24;87.91
77056;SHT30;67471;44.918;8.614;2024-03-02T03:05:57;11.19;88.09
77056;SHT30;67471;44.918;8.614;2024-03-02T03:09:01;11.16;88.35
77056;SHT30;67471;44.918;8.614;2024-03-02T03:12:05;11.15;88.41
77056;SHT30;67471;44.918;8.614;2024-03-02T03:15:10;11.08;88.60
77056;SHT30;67471;44.918;8.614;2024-03-02T03:18:15;11.11;88.84
77056;SHT30;67471;44.918;8.614;2024-03-02T03:21:19;11.19;88.33
77056;SHT30;67471;44.918;8.614;2024-03-02T03:24:23;11.12;88.55
77056;SHT30;67471;44.918;8.614;2024-03-02T03:27:27;11.11;88.56
77056;SHT30;67471;44.918;8.614;2024-03-02T03:30:30;11.08;88.71
77056;SHT30;67471;44.918;8.614;2024-03-02T03:33:34;11.05;88.99
77056;SHT30;67471;44.918;8.614;2024-03-02T03:36:38;11.11;88.81
77056;SHT30;67471;44.918;8.614;2024-03-02T03:39:41;11.09;88.80
77056;SHT30;67471;44.918;8.614;2024-03-02T03:42:45;11.16;88.50
77056;SHT30;67471;44.918;8.614;2024-03-02T03:45:49;11.18;88.16
77056;SHT30;67471;44.918;8.614;2024-03-02T03:48:53;11.15;88.51
77056;SHT30;67471;44.918;8.614;2024-03-02T03:51:56;11.12;88.76
77056;SHT30;67471;44.918;8.614;2024-03-02T03:55:00;11.15;88.53
77056;SHT30;67471;44.918;8.614;2024-03-02T03:58:04;11.15;88.71
77056;SHT30;67471;44.918;8.614;2024-03-02T04:01:08;11.02;88.93
77056;SHT30;67471;44.918;8.614;2024-03-02T04:04:11;11.11;88.77
77056;SHT30;67471;44.918;8.614;2024-03-02T04:07:15;11.15;88.72
77056;SHT30;67471;44.918;8.614;2024-03-02T04:10:19;11.12;88.92
77056;SHT30;67471;44.918;8.614;2024-03-02T04:13:24;11.12;89.03
77056;SHT30;67471;44.918;8.614;2024-03-02T04:16:28;11.09;89.06
77056;SHT30;67471;44.918;8.614;2024-03-02T04:19:32;11.16;88.65
77056;SHT30;67471;44.918;8.614;2024-03-02T04:22:35;11.09;88.97
77056;SHT30;67471;44.918;8.614;2024-03-02T04:25:39;11.09;89.06
77056;SHT30;67471;44.918;8.614;2024-03-02T04:28:43;11.09;88.81
77056;SHT30;67471;44.918;8.614;2024-03-02T04:31:47;11.18;88.82
77056;SHT30;67471;44.918;8.614;2024-03-02T04:34:51;10.93;88.98
77056;SHT30;67471;44.918;8.614;2024-03-02T04:37:55;11.02;88.85
77056;SHT30;67471;44.918;8.614;2024-03-02T04:40:59;11.03;88.93
77056;SHT30;67471;44.918;8.614;2024-03-02T04:44:03;11.03;88.64
77056;SHT30;67471;44.918;8.614;2024-03-02T04:47:07;11.01;88.52
77056;SHT30;67471;44.918;8.614;2024-03-02T04:50:10;11.12;88.12
77056;SHT30;67471;44.918;8.614;2024-03-02T04:53:14;10.96;88.38
77056;SHT30;67471;44.918;8.614;2024-03-02T04:56:18;10.99;88.36
77056;SHT30;67471;44.918;8.614;2024-03-02T04:59:43;10.96;88.65
77056;SHT30;67471;44.918;8.614;2024-03-02T05:02:47;11.02;88.48
77056;SHT30;67471;44.918;8.614;2024-03-02T05:05:51;11.06;88.16
77056;SHT30;67471;44.918;8.614;2024-03-02T05:08:55;11.06;88.42
77056;SHT30;67471;44.918;8.614;2024-03-02T05:11:59;11.05;88.10
77056;SHT30;67471;44.918;8.614;2024-03-02T05:15:21;11.02;88.11
77056;SHT30;67471;44.918;8.614;2024-03-02T05:18:25;11.03;88.47
77056;SHT30;67471;44.918;8.614;2024-03-02T05:21:28;11.02;88.46
77056;SHT30;67471;44.918;8.614;2024-03-02T05:24:32;10.99;88.33
77056;SHT30;67471;44.918;8.614;2024-03-02T05:27:36;10.96;88.58
77056;SHT30;67471;44.918;8.614;2024-03-02T05:30:42;10.98;88.58
77056;SHT30;67471;44.918;8.614;2024-03-02T05:33:46;11.01;88.55
77056;SHT30;67471;44.918;8.614;2024-03-02T05:36:50;10.96;88.75
77056;SHT30;67471;44.918;8.614;2024-03-02T05:39:53;10.92;88.90
77056;SHT30;67471;44.918;8.614;2024-03-02T05:42:57;10.99;88.32
77056;SHT30;67471;44.918;8.614;2024-03-02T05:46:01;10.86;88.41
77056;SHT30;67471;44.918;8.614;2024-03-02T05:49:05;10.72;89.28
77056;SHT30;67471;44.918;8.614;2024-03-02T05:52:11;10.79;89.12
77056;SHT30;67471;44.918;8.614;2024-03-02T05:55:15;10.95;88.71
77056;SHT30;67471;44.918;8.614;2024-03-02T05:58:19;10.95;88.79
77056;SHT30;67471;44.918;8.614;2024-03-02T06:01:56;10.95;88.90
77056;SHT30;67471;44.918;8.614;2024-03-02T06:05:00;11.02;88.57
77056;SHT30;67471;44.918;8.614;2024-03-02T06:08:04;10.99;88.67
77056;SHT30;67471;44.918;8.614;2024-03-02T06:11:08;10.99;88.89
77056;SHT30;67471;44.918;8.614;2024-03-02T06:14:12;10.99;88.98
77056;SHT30;67471;44.918;8.614;2024-03-02T06:17:15;11.01;88.75
77056;SHT30;67471;44.918;8.614;2024-03-02T06:20:19;11.02;88.47
77056;SHT30;67471;44.918;8.614;2024-03-02T06:23:23;11.01;88.48
77056;SHT30;67471;44.918;8.614;2024-03-02T06:26:27;10.93;88.67
77056;SHT30;67471;44.918;8.614;2024-03-02T06:29:33;10.98;88.21
77056;SHT30;67471;44.918;8.614;2024-03-02T06:32:37;10.95;88.54
77056;SHT30;67471;44.918;8.614;2024-03-02T06:35:41;10.89;88.66
77056;SHT30;67471;44.918;8.614;2024-03-02T06:38:44;10.99;88.17
77056;SHT30;67471;44.918;8.614;2024-03-02T06:41:48;10.82;88.63
77056;SHT30;67471;44.918;8.614;2024-03-02T06:44:52;10.93;88.57
77056;SHT30;67471;44.918;8.614;2024-03-02T06:47:56;11.01;88.27
77056;SHT30;67471;44.918;8.614;2024-03-02T06:51:00;11.05;87.68
77056;SHT30;67471;44.918;8.614;2024-03-02T06:54:04;11.06;87.91
77056;SHT30;67471;44.918;8.614;2024-03-02T06:57:08;11.02;88.18
77056;SHT30;67471;44.918;8.614;2024-03-02T07:00:12;11.08;87.94
77056;SHT30;67471;44.918;8.614;2024-03-02T07:03:17;10.98;88.36
77056;SHT30;67471;44.918;8.614;2024-03-02T07:06:21;11.05;88.34
77056;SHT30;67471;44.918;8.614;2024-03-02T07:09:25;11.02;88.32
77056;SHT30;67471;44.918;8.614;2024-03-02T07:12:29;11.09;87.89
77056;SHT30;67471;44.918;8.614;2024-03-02T07:15:33;11.12;88.04
77056;SHT30;67471;44.918;8.614;2024-03-02T07:18:56;11.16;87.86
77056;SHT30;67471;44.918;8.614;2024-03-02T07:22:00;11.18;87.74
77056;SHT30;67471;44.918;8.614;2024-03-02T07:25:04;11.19;87.62
77056;SHT30;67471;44.918;8.614;2024-03-02T07:28:10;11.20;87.40
77056;SHT30;67471;44.918;8.614;2024-03-02T07:31:15;11.22;87.31
77056;SHT30;67471;44.918;8.614;2024-03-02T07:34:18;11.15;87.46
77056;SHT30;67471;44.918;8.614;2024-03-02T07:37:23;11.22;87.30
77056;SHT30;67471;44.918;8.614;2024-03-02T07:40:27;11.24;86.92
77056;SHT30;67471;44.918;8.614;2024-03-02T07:43:31;11.26;87.16
77056;SHT30;67471;44.918;8.614;2024-03-02T07:46:36;11.24;87.28
77056;SHT30;67471;44.918;8.614;2024-03-02T07:49:41;11.27;86.85
77056;SHT30;67471;44.918;8.614;2024-03-02T07:52:45;11.44;85.95
77056;SHT30;67471;44.918;8.614;2024-03-02T07:55:49;11.44;85.68
77056;SHT30;67471;44.918;8.614;2024-03-02T07:58:53;11.51;86.05
77056;SHT30;67471;44.918;8.614;2024-03-02T08:01:57;11.43;85.90
77056;SHT30;67471;44.918;8.614;2024-03-02T08:05:01;11.53;85.65
77056;SHT30;67471;44.918;8.614;2024-03-02T08:08:05;11.61;85.05
77056;SHT30;67471;44.918;8.614;2024-03-02T08:11:09;11.63;84.98
77056;SHT30;67471;44.918;8.614;2024-03-02T08:14:13;11.66;85.42
77056;SHT30;67471;44.918;8.614;2024-03-02T08:17:17;11.63;85.08
77056;SHT30;67471;44.918;8.614;2024-03-02T08:20:21;11.69;85.43
77056;SHT30;67471;44.918;8.614;2024-03-02T08:23:25;11.69;85.21
77056;SHT30;67471;44.918;8.614;2024-03-02T08:26:29;11.77;85.18
77056;SHT30;67471;44.918;8.614;2024-03-02T08:29:34;11.85;85.17
77056;SHT30;67471;44.918;8.614;2024-03-02T08:32:38;11.87;84.94
77056;SHT30;67471;44.918;8.614;2024-03-02T08:35:42;11.69;85.21
77056;SHT30;67471;44.918;8.614;2024-03-02T08:38:46;11.88;84.87
77056;SHT30;67471;44.918;8.614;2024-03-02T08:41:51;11.74;85.50
77056;SHT30;67471;44.918;8.614;2024-03-02T08:44:55;11.66;85.78
77056;SHT30;67471;44.918;8.614;2024-03-02T08:47:59;11.51;86.50
77056;SHT30;67471;44.918;8.614;2024-03-02T08:51:03;11.74;85.82
77056;SHT30;67471;44.918;8.614;2024-03-02T08:54:09;11.81;85.96
77056;SHT30;67471;44.918;8.614;2024-03-02T08:57:13;11.84;85.89
77056;SHT30;67471;44.918;8.614;2024-03-02T09:00:17;11.88;85.52
77056;SHT30;67471;44.918;8.614;2024-03-02T09:03:22;11.84;85.74
77056;SHT30;67471;44.918;8.614;2024-03-02T09:06:26;11.85;85.65
77056;SHT30;67471;44.918;8.614;2024-03-02T09:09:29;11.82;86.02
77056;SHT30;67471;44.918;8.614;2024-03-02T09:12:35;11.84;85.96
77056;SHT30;67471;44.918;8.614;2024-03-02T09:15:39;11.80;86.19
77056;SHT30;67471;44.918;8.614;2024-03-02T09:18:43;11.64;86.71
77056;SHT30;67471;44.918;8.614;2024-03-02T09:21:47;11.80;86.21
77056;SHT30;67471;44.918;8.614;2024-03-02T09:24:51;11.78;86.46
77056;SHT30;67471;44.918;8.614;2024-03-02T09:27:55;11.85;86.31
77056;SHT30;67471;44.918;8.614;2024-03-02T09:31:01;11.97;86.19
77056;SHT30;67471;44.918;8.614;2024-03-02T09:34:04;11.99;86.35
77056;SHT30;67471;44.918;8.614;2024-03-02T09:37:08;12.06;86.19
77056;SHT30;67471;44.918;8.614;2024-03-02T09:40:13;11.98;86.29
77056;SHT30;67471;44.918;8.614;2024-03-02T09:43:17;12.04;85.98
77056;SHT30;67471;44.918;8.614;2024-03-02T09:46:20;11.82;87.03
77056;SHT30;67471;44.918;8.614;2024-03-02T09:49:24;11.90;86.77
77056;SHT30;67471;44.918;8.614;2024-03-02T09:52:28;11.81;86.81
77056;SHT30;67471;44.918;8.614;2024-03-02T09:55:32;11.63;88.05
77056;SHT30;67471;44.918;8.614;2024-03-02T09:58:36;11.73;87.71
77056;SHT30;67471;44.918;8.614;2024-03-02T10:01:39;12.02;88.43
77056;SHT30;67471;44.918;8.614;2024-03-02T10:04:43;12.56;86.41
77056;SHT30;67471;44.918;8.614;2024-03-02T10:08:01;12.67;84.91
77056;SHT30;67471;44.918;8.614;2024-03-02T10:11:05;12.89;83.49
77056;SHT30;67471;44.918;8.614;2024-03-02T10:14:12;12.91;83.56
77056;SHT30;67471;44.918;8.614;2024-03-02T10:17:17;12.91;83.47
77056;SHT30;67471;44.918;8.614;2024-03-02T10:20:22;13.04;83.22
77056;SHT30;67471;44.918;8.614;2024-03-02T10:23:26;12.67;84.95
77056;SHT30;67471;44.918;8.614;2024-03-02T10:26:30;12.46;85.48
77056;SHT30;67471;44.918;8.614;2024-03-02T10:29:37;12.87;84.51
77056;SHT30;67471;44.918;8.614;2024-03-02T10:32:41;13.10;83.62
77056;SHT30;67471;44.918;8.614;2024-03-02T10:35:45;13.27;83.44
77056;SHT30;67471;44.918;8.614;2024-03-02T10:38:50;13.31;83.13
77056;SHT30;67471;44.918;8.614;2024-03-02T10:41:55;13.37;81.69
77056;SHT30;67471;44.918;8.614;2024-03-02T10:44:59;12.86;82.99
77056;SHT30;67471;44.918;8.614;2024-03-02T10:48:03;12.81;83.19
77056;SHT30;67471;44.918;8.614;2024-03-02T10:51:08;12.35;85.11
77056;SHT30;67471;44.918;8.614;2024-03-02T10:54:12;12.28;85.25
77056;SHT30;67471;44.918;8.614;2024-03-02T10:57:17;11.97;86.69
77056;SHT30;67471;44.918;8.614;2024-03-02T11:00:25;11.82;87.27
77056;SHT30;67471;44.918;8.614;2024-03-02T11:03:36;12.02;87.09
77056;SHT30;67471;44.918;8.614;2024-03-02T11:06:49;12.25;86.68
77056;SHT30;67471;44.918;8.614;2024-03-02T11:10:03;12.62;84.61
77056;SHT30;67471;44.918;8.614;2024-03-02T11:13:12;12.77;83.85
77056;SHT30;67471;44.918;8.614;2024-03-02T11:16:37;13.07;81.98
77056;SHT30;67471;44.918;8.614;2024-03-02T11:19:42;12.77;81.76
77056;SHT30;67471;44.918;8.614;2024-03-02T11:22:46;13.18;80.77
77056;SHT30;67471;44.918;8.614;2024-03-02T11:25:50;13.22;80.42
77056;SHT30;67471;44.918;8.614;2024-03-02T11:28:54;12.90;82.11
77056;SHT30;67471;44.918;8.614;2024-03-02T11:31:59;13.06;81.93
77056;SHT30;67471;44.918;8.614;2024-03-02T11:35:06;13.27;80.80
77056;SHT30;67471;44.918;8.614;2024-03-02T11:38:11;13.08;80.83
77056;SHT30;67471;44.918;8.614;2024-03-02T11:41:15;13.41;80.68
77056;SHT30;67471;44.918;8.614;2024-03-02T11:44:19;13.48;79.26
77056;SHT30;67471;44.918;8.614;2024-03-02T11:47:22;13.38;79.47
77056;SHT30;67471;44.918;8.614;2024-03-02T11:50:31;13.44;79.56
77056;SHT30;67471;44.918;8.614;2024-03-02T11:53:38;13.90;78.57
77056;SHT30;67471;44.918;8.614;2024-03-02T11:56:43;14.29;75.77
77056;SHT30;67471;44.918;8.614;2024-03-02T11:59:48;14.65;75.14
77056;SHT30;67471;44.918;8.614;2024-03-02T12:03:20;14.95;74.13
77056;SHT30;67471;44.918;8.614;2024-03-02T12:06:24;15.12;74.10
77056;SHT30;67471;44.918;8.614;2024-03-02T12:09:28;15.44;73.68
77056;SHT30;67471;44.918;8.614;2024-03-02T12:12:32;15.53;72.97
77056;SHT30;67471;44.918;8.614;2024-03-02T12:15:38;15.63;72.24
77056;SHT30;67471;44.918;8.614;2024-03-02T12:18:42;15.80;72.12
77056;SHT30;67471;44.918;8.614;2024-03-02T12:21:46;15.60;71.54
77056;SHT30;67471;44.918;8.614;2024-03-02T12:24:50;15.90;71.40
77056;SHT30;67471;44.918;8.614;2024-03-02T12:27:55;16.12;69.68
77056;SHT30;67471;44.918;8.614;2024-03-02T12:31:00;15.96;69.16
77056;SHT30;67471;44.918;8.614;2024-03-02T12:34:03;16.66;67.80
77056;SHT30;67471;44.918;8.614;2024-03-02T12:37:07;16.83;66.84
77056;SHT30;67471;44.918;8.614;2024-03-02T12:40:12;16.83;67.54
77056;SHT30;67471;44.918;8.614;2024-03-02T12:43:16;16.83;67.35
77056;SHT30;67471;44.918;8.614;2024-03-02T12:46:20;16.49;66.89
77056;SHT30;67471;44.918;8.614;2024-03-02T12:49:24;16.31;66.95
77056;SHT30;67471;44.918;8.614;2024-03-02T12:52:28;15.77;67.53
77056;SHT30;67471;44.918;8.614;2024-03-02T12:55:32;16.10;67.32
77056;SHT30;67471;44.918;8.614;2024-03-02T12:58:42;16.14;67.11
77056;SHT30;67471;44.918;8.614;2024-03-02T13:01:53;16.18;67.49
77056;SHT30;67471;44.918;8.614;2024-03-02T13:04:58;16.17;67.99
77056;SHT30;67471;44.918;8.614;2024-03-02T13:08:02;16.08;68.03
77056;SHT30;67471;44.918;8.614;2024-03-02T13:11:08;15.88;67.84
77056;SHT30;67471;44.918;8.614;2024-03-02T13:14:11;15.84;67.75
77056;SHT30;67471;44.918;8.614;2024-03-02T13:17:15;15.76;68.12
77056;SHT30;67471;44.918;8.614;2024-03-02T13:20:19;15.57;69.52
77056;SHT30;67471;44.918;8.614;2024-03-02T13:23:23;15.06;70.57
77056;SHT30;67471;44.918;8.614;2024-03-02T13:26:27;14.87;73.11
77056;SHT30;67471;44.918;8.614;2024-03-02T13:29:31;14.21;73.76
77056;SHT30;67471;44.918;8.614;2024-03-02T13:32:34;14.27;75.13
77056;SHT30;67471;44.918;8.614;2024-03-02T13:35:38;14.45;75.13
77056;SHT30;67471;44.918;8.614;2024-03-02T13:38:42;14.65;74.97
77056;SHT30;67471;44.918;8.614;2024-03-02T13:41:46;14.58;74.42
77056;SHT30;67471;44.918;8.614;2024-03-02T13:44:56;14.40;74.65
77056;SHT30;67471;44.918;8.614;2024-03-02T13:48:00;14.40;73.49
77056;SHT30;67471;44.918;8.614;2024-03-02T13:51:04;14.57;72.37
77056;SHT30;67471;44.918;8.614;2024-03-02T13:54:07;13.96;75.54
77056;SHT30;67471;44.918;8.614;2024-03-02T13:57:11;13.90;76.51
77056;SHT30;67471;44.918;8.614;2024-03-02T14:00:16;14.03;76.33
77056;SHT30;67471;44.918;8.614;2024-03-02T14:03:21;13.85;76.65
77056;SHT30;67471;44.918;8.614;2024-03-02T14:06:25;13.83;77.20
77056;SHT30;67471;44.918;8.614;2024-03-02T14:09:30;13.65;77.49
77056;SHT30;67471;44.918;8.614;2024-03-02T14:12:34;13.76;77.08
77056;SHT30;67471;44.918;8.614;2024-03-02T14:15:38;13.92;77.25
77056;SHT30;67471;44.918;8.614;2024-03-02T14:18:42;13.98;77.50
77056;SHT30;67471;44.918;8.614;2024-03-02T14:21:47;13.95;76.90
77056;SHT30;67471;44.918;8.614;2024-03-02T14:24:51;13.93;77.01
77056;SHT30;67471;44.918;8.614;2024-03-02T14:27:54;14.12;77.07
77056;SHT30;67471;44.918;8.614;2024-03-02T14:30:58;13.99;76.40
77056;SHT30;67471;44.918;8.614;2024-03-02T14:34:04;13.92;76.58
77056;SHT30;67471;44.918;8.614;2024-03-02T14:37:07;13.86;77.30
77056;SHT30;67471;44.918;8.614;2024-03-02T14:40:12;13.85;76.67
77056;SHT30;67471;44.918;8.614;2024-03-02T14:43:16;13.80;77.27
77056;SHT30;67471;44.918;8.614;2024-03-02T14:46:20;13.98;77.22
77056;SHT30;67471;44.918;8.614;2024-03-02T14:49:25;14.05;76.89
77056;SHT30;67471;44.918;8.614;2024-03-02T14:52:28;13.87;76.83
77056;SHT30;67471;44.918;8.614;2024-03-02T14:55:33;13.87;76.77
77056;SHT30;67471;44.918;8.614;2024-03-02T14:58:38;13.83;77.11
77056;SHT30;67471;44.918;8.614;2024-03-02T15:01:41;13.73;77.61
77056;SHT30;67471;44.918;8.614;2024-03-02T15:04:45;13.59;78.34
77056;SHT30;67471;44.918;8.614;2024-03-02T15:07:51;13.49;79.03
77056;SHT30;67471;44.918;8.614;2024-03-02T15:10:55;13.41;79.24
77056;SHT30;67471;44.918;8.614;2024-03-02T15:14:03;13.34;79.43
77056;SHT30;67471;44.918;8.614;2024-03-02T15:17:07;13.42;79.43
77056;SHT30;67471;44.918;8.614;2024-03-02T15:20:11;13.49;79.28
77056;SHT30;67471;44.918;8.614;2024-03-02T15:23:14;13.45;79.42
77056;SHT30;67471;44.918;8.614;2024-03-02T15:26:18;13.48;79.32
77056;SHT30;67471;44.918;8.614;2024-03-02T15:29:22;13.62;78.95
77056;SHT30;67471;44.918;8.614;2024-03-02T15:32:28;13.59;79.08
77056;SHT30;67471;44.918;8.614;2024-03-02T15:35:32;13.61;79.07
77056;SHT30;67471;44.918;8.614;2024-03-02T15:38:36;13.40;80.25
77056;SHT30;67471;44.918;8.614;2024-03-02T15:41:43;13.30;81.31
77056;SHT30;67471;44.918;8.614;2024-03-02T15:44:47;13.27;81.32
77056;SHT30;67471;44.918;8.614;2024-03-02T15:47:51;13.20;81.23
77056;SHT30;67471;44.918;8.614;2024-03-02T15:50:55;13.20;81.31
77056;SHT30;67471;44.918;8.614;2024-03-02T15:53:59;13.18;81.19
77056;SHT30;67471;44.918;8.614;2024-03-02T15:57:03;13.24;80.76
77056;SHT30;67471;44.918;8.614;2024-03-02T16:00:07;13.28;80.35
77056;SHT30;67471;44.918;8.614;2024-03-02T16:03:18;13.24;80.82
77056;SHT30;67471;44.918;8.614;2024-03-02T16:06:22;13.17;80.87
77056;SHT30;67471;44.918;8.614;2024-03-02T16:09:26;13.15;81.15
77056;SHT30;67471;44.918;8.614;2024-03-02T16:12:29;13.11;80.76
77056;SHT30;67471;44.918;8.614;2024-03-02T16:15:33;13.07;81.09
77056;SHT30;67471;44.918;8.614;2024-03-02T16:18:37;13.10;80.19
77056;SHT30;67471;44.918;8.614;2024-03-02T16:21:41;13.12;79.71
77056;SHT30;67471;44.918;8.614;2024-03-02T16:24:45;13.10;79.33
77056;SHT30;67471;44.918;8.614;2024-03-02T16:27:49;13.14;78.73
77056;SHT30;67471;44.918;8.614;2024-03-02T16:30:53;13.25;76.63
77056;SHT30;67471;44.918;8.614;2024-03-02T16:33:58;13.17;75.85
77056;SHT30;67471;44.918;8.614;2024-03-02T16:37:01;13.22;74.81
77056;SHT30;67471;44.918;8.614;2024-03-02T16:40:07;13.22;72.89
77056;SHT30;67471;44.918;8.614;2024-03-02T16:43:11;13.30;72.00
77056;SHT30;67471;44.918;8.614;2024-03-02T16:46:15;13.28;70.48
77056;SHT30;67471;44.918;8.614;2024-03-02T16:49:19;13.37;70.35
77056;SHT30;67471;44.918;8.614;2024-03-02T16:52:27;13.21;69.93
77056;SHT30;67471;44.918;8.614;2024-03-02T16:55:33;13.22;68.66
77056;SHT30;67471;44.918;8.614;2024-03-02T16:58:37;13.28;69.25
77056;SHT30;67471;44.918;8.614;2024-03-02T17:01:40;13.31;68.77
77056;SHT30;67471;44.918;8.614;2024-03-02T17:04:44;13.22;69.22
77056;SHT30;67471;44.918;8.614;2024-03-02T17:07:48;13.18;70.72
77056;SHT30;67471;44.918;8.614;2024-03-02T17:10:52;13.22;70.63
77056;SHT30;67471;44.918;8.614;2024-03-02T17:13:55;13.22;70.83
77056;SHT30;67471;44.918;8.614;2024-03-02T17:17:01;13.06;70.86
77056;SHT30;67471;44.918;8.614;2024-03-02T17:20:05;13.14;71.08
77056;SHT30;67471;44.918;8.614;2024-03-02T17:23:12;12.99;71.16
77056;SHT30;67471;44.918;8.614;2024-03-02T17:26:16;13.01;71.24
77056;SHT30;67471;44.918;8.614;2024-03-02T17:29:20;13.06;70.70
77056;SHT30;67471;44.918;8.614;2024-03-02T17:32:23;12.99;70.62
77056;SHT30;67471;44.918;8.614;2024-03-02T17:35:27;12.91;70.23
77056;SHT30;67471;44.918;8.614;2024-03-02T17:38:31;12.94;71.08
77056;SHT30;67471;44.918;8.614;2024-03-02T17:41:35;13.00;70.14
77056;SHT30;67471;44.918;8.614;2024-03-02T17:44:39;12.89;70.14
77056;SHT30;67471;44.918;8.614;2024-03-02T17:47:43;12.84;71.07
77056;SHT30;67471;44.918;8.614;2024-03-02T17:50:48;12.76;72.08
77056;SHT30;67471;44.918;8.614;2024-03-02T17:53:52;12.70;73.00
77056;SHT30;67471;44.918;8.614;2024-03-02T17:56:56;12.49;74.06
77056;SHT30;67471;44.918;8.614;2024-03-02T18:00:00;12.41;74.35
77056;SHT30;67471;44.918;8.614;2024-03-02T18:03:05;12.53;72.88
77056;SHT30;67471;44.918;8.614;2024-03-02T18:06:12;12.64;72.01
77056;SHT30;67471;44.918;8.614;2024-03-02T18:09:16;12.53;72.66
77056;SHT30;67471;44.918;8.614;2024-03-02T18:12:20;12.59;72.60
77056;SHT30;67471;44.918;8.614;2024-03-02T18:15:24;12.63;72.97
77056;SHT30;67471;44.918;8.614;2024-03-02T18:18:28;12.43;73.91
77056;SHT30;67471;44.918;8.614;2024-03-02T18:21:32;12.49;73.63
77056;SHT30;67471;44.918;8.614;2024-03-02T18:24:36;12.48;73.68
77056;SHT30;67471;44.918;8.614;2024-03-02T18:27:40;12.42;73.72
77056;SHT30;67471;44.918;8.614;2024-03-02T18:30:44;12.28;74.22
77056;SHT30;67471;44.918;8.614;2024-03-02T18:33:48;12.24;74.82
77056;SHT30;67471;44.918;8.614;2024-03-02T18:36:52;12.33;74.71
77056;SHT30;67471;44.918;8.614;2024-03-02T18:39:55;12.28;75.03
77056;SHT30;67471;44.918;8.614;2024-03-02T18:43:00;12.35;75.04
77056;SHT30;67471;44.918;8.614;2024-03-02T18:46:07;12.33;75.10
77056;SHT30;67471;44.918;8.614;2024-03-02T18:49:13;12.26;74.96
77056;SHT30;67471;44.918;8.614;2024-03-02T18:52:17;12.24;74.87
77056;SHT30;67471;44.918;8.614;2024-03-02T18:55:21;12.15;74.78
77056;SHT30;67471;44.918;8.614;2024-03-02T18:58:24;12.11;74.93
77056;SHT30;67471;44.918;8.614;2024-03-02T19:01:28;12.18;74.42
77056;SHT30;67471;44.918;8.614;2024-03-02T19:04:32;12.19;74.09
77056;SHT30;67471;44.918;8.614;2024-03-02T19:07:36;12.11;75.14
77056;SHT30;67471;44.918;8.614;2024-03-02T19:10:40;12.22;74.79
77056;SHT30;67471;44.918;8.614;2024-03-02T19:13:44;12.28;74.60
77056;SHT30;67471;44.918;8.614;2024-03-02T19:16:51;12.18;74.94
77056;SHT30;67471;44.918;8.614;2024-03-02T19:19:54;12.22;74.68
77056;SHT30;67471;44.918;8.614;2024-03-02T19:22:58;12.21;74.84
77056;SHT30;67471;44.918;8.614;2024-03-02T19:26:02;12.06;75.68